Time;durP1;ratioP1;P1;durP2;ratioP2;P2;SDS_P1;SDS_P2;PMS_P1;PMS_P2;Temp;Humidity;BMP_temperature;BMP_pressure;BME280_temperature;BME280_humidity;BME280_pressure;Samples;Min_cycle;Max_cycle;Signal;HPM_P1;HPM_P2
2023/11/08 00:02:10;;;;;;;1.67;1.50;;;8.20;99.90;;;;;;5009082;28;20125;-65
2023/11/08 00:04:35;;;;;;;2.45;1.63;;;8.20;99.90;;;;;;5034086;28;20041;-65
2023/11/08 00:07:03;;;;;;;1.65;1.30;;;8.20;99.90;;;;;;5026995;28;20503;-65
2023/11/08 00:09:28;;;;;;;2.70;1.40;;;8.30;99.90;;;;;;5027494;28;20465;-65
2023/11/08 00:11:54;;;;;;;3.20;1.30;;;8.30;99.90;;;;;;5027947;28;20045;-65
2023/11/08 00:14:21;;;;;;;1.98;0.90;;;8.30;99.90;;;;;;5026997;28;20056;-66
2023/11/08 00:16:47;;;;;;;4.55;1.27;;;8.30;99.90;;;;;;5009865;28;20049;-66
2023/11/08 00:19:16;;;;;;;0.60;0.55;;;8.30;99.90;;;;;;5026851;28;20107;-66
2023/11/08 00:21:42;;;;;;;3.53;1.20;;;8.30;99.90;;;;;;5027381;28;20401;-66
2023/11/08 00:24:08;;;;;;;0.47;0.47;;;8.30;99.90;;;;;;5027155;28;20103;-66
2023/11/08 00:26:34;;;;;;;3.67;0.75;;;8.30;99.90;;;;;;5027004;28;20074;-65
2023/11/08 00:29:00;;;;;;;1.27;0.73;;;8.20;99.90;;;;;;5027057;28;20053;-65
2023/11/08 00:31:25;;;;;;;2.78;0.98;;;8.20;99.90;;;;;;5027149;28;20049;-65
2023/11/08 00:33:54;;;;;;;1.75;0.88;;;8.30;99.90;;;;;;5034903;28;20045;-65
2023/11/08 00:36:20;;;;;;;1.58;0.90;;;8.20;99.90;;;;;;5021886;28;20053;-65
2023/11/08 00:38:46;;;;;;;2.40;1.25;;;8.30;99.90;;;;;;5026499;28;20041;-65
2023/11/08 00:41:13;;;;;;;4.65;1.05;;;8.30;99.90;;;;;;5026563;28;20495;-66
2023/11/08 00:43:39;;;;;;;3.25;1.13;;;8.30;99.90;;;;;;5009447;28;20048;-66
2023/11/08 00:46:07;;;;;;;1.75;1.13;;;8.30;99.90;;;;;;5026584;28;20126;-66
2023/11/08 00:48:34;;;;;;;0.70;0.70;;;8.30;99.90;;;;;;5026594;28;20483;-66
2023/11/08 00:51:01;;;;;;;0.98;0.98;;;8.30;99.90;;;;;;5027258;28;20065;-66
2023/11/08 00:53:27;;;;;;;0.60;0.60;;;8.30;99.90;;;;;;5026101;28;20072;-65
2023/11/08 00:55:52;;;;;;;2.00;1.00;;;8.40;99.90;;;;;;5026675;28;20128;-65
2023/11/08 00:58:18;;;;;;;5.78;0.73;;;8.40;99.90;;;;;;5018291;28;20049;-65
2023/11/08 01:00:44;;;;;;;1.35;0.80;;;8.30;99.90;;;;;;5020088;28;20041;-65
2023/11/08 01:03:12;;;;;;;3.25;1.00;;;8.30;99.90;;;;;;5008086;28;20124;-65
2023/11/08 01:05:38;;;;;;;0.80;0.80;;;8.40;99.90;;;;;;5030784;28;20443;-65
2023/11/08 01:08:04;;;;;;;3.47;1.48;;;8.30;99.90;;;;;;5032281;28;20100;-65
2023/11/08 01:10:29;;;;;;;1.23;0.80;;;8.30;99.90;;;;;;5032988;28;20041;-65
2023/11/08 01:12:55;;;;;;;2.70;1.02;;;8.30;99.90;;;;;;5044196;28;20132;-65
2023/11/08 01:15:21;;;;;;;1.42;1.20;;;8.20;99.90;;;;;;5028569;28;20364;-65
2023/11/08 01:17:47;;;;;;;0.82;0.82;;;8.20;99.90;;;;;;5045039;28;20083;-65
2023/11/08 01:20:13;;;;;;;1.17;0.90;;;8.20;99.90;;;;;;5021968;28;20049;-65
2023/11/08 01:22:39;;;;;;;0.70;0.68;;;8.10;99.90;;;;;;5046515;28;20582;-65
2023/11/08 01:25:06;;;;;;;1.58;1.15;;;8.00;99.90;;;;;;5046106;28;20124;-65
2023/11/08 01:27:31;;;;;;;1.88;1.00;;;8.00;99.90;;;;;;5046193;28;20122;-65
2023/11/08 01:29:57;;;;;;;1.45;1.20;;;8.00;99.90;;;;;;5016149;28;20478;-65
2023/11/08 01:32:23;;;;;;;1.63;1.30;;;7.90;99.90;;;;;;5042627;28;20539;-65
2023/11/08 01:34:48;;;;;;;2.92;1.42;;;8.00;99.90;;;;;;5046280;28;20140;-65
2023/11/08 01:37:14;;;;;;;2.70;1.90;;;8.00;99.90;;;;;;5028261;28;20044;-65
2023/11/08 01:39:40;;;;;;;1.63;1.52;;;8.00;99.90;;;;;;5019143;28;20132;-65
2023/11/08 01:42:05;;;;;;;3.70;2.67;;;8.00;99.90;;;;;;5045623;28;20033;-65
2023/11/08 01:44:31;;;;;;;2.08;1.77;;;8.00;99.90;;;;;;5042880;28;20474;-65
2023/11/08 01:46:59;;;;;;;3.30;2.15;;;8.10;99.90;;;;;;5028542;28;20048;-65
2023/11/08 01:49:26;;;;;;;3.83;2.53;;;8.10;99.90;;;;;;5026860;28;20091;-65
2023/11/08 01:51:52;;;;;;;4.40;2.50;;;8.20;99.90;;;;;;5045396;28;20041;-65
2023/11/08 01:54:19;;;;;;;2.45;2.25;;;8.20;99.90;;;;;;5049362;28;20525;-65
2023/11/08 01:56:47;;;;;;;5.07;2.53;;;8.20;99.90;;;;;;5049995;28;20057;-65
2023/11/08 01:59:15;;;;;;;5.18;2.50;;;8.30;99.90;;;;;;5049538;28;20048;-65
2023/11/08 02:01:42;;;;;;;3.92;2.58;;;8.30;99.90;;;;;;5037986;28;20399;-65
2023/11/08 02:04:07;;;;;;;6.88;3.40;;;8.30;99.90;;;;;;5048312;28;20048;-65
2023/11/08 02:06:34;;;;;;;4.47;2.92;;;8.30;99.90;;;;;;5040118;28;20049;-65
2023/11/08 02:09:00;;;;;;;3.05;2.63;;;8.20;99.90;;;;;;5045119;28;20045;-65
2023/11/08 02:11:29;;;;;;;6.97;2.88;;;8.40;99.90;;;;;;5034326;28;20127;-65
2023/11/08 02:13:58;;;;;;;5.85;2.90;;;8.40;99.90;;;;;;5038182;28;20037;-66
2023/11/08 02:16:24;;;;;;;4.95;3.45;;;8.30;99.90;;;;;;5049266;28;20105;-65
2023/11/08 02:18:50;;;;;;;9.95;2.75;;;8.30;99.90;;;;;;5028444;28;20052;-65
2023/11/08 02:21:17;;;;;;;4.63;2.75;;;8.30;99.90;;;;;;5043282;28;20083;-65
2023/11/08 02:23:43;;;;;;;8.85;3.53;;;8.30;99.90;;;;;;5013546;28;20052;-65
2023/11/08 02:26:09;;;;;;;2.75;2.55;;;8.30;99.90;;;;;;5049377;28;20158;-65
2023/11/08 02:28:37;;;;;;;3.10;2.78;;;8.20;99.90;;;;;;5031211;28;20099;-65
2023/11/08 02:31:02;;;;;;;5.18;3.05;;;8.30;99.90;;;;;;5047951;28;20041;-65
2023/11/08 02:33:29;;;;;;;10.18;3.38;;;8.30;99.90;;;;;;5010775;28;20047;-65
2023/11/08 02:35:57;;;;;;;3.58;2.90;;;8.30;99.90;;;;;;5049394;28;20537;-65
2023/11/08 02:38:23;;;;;;;5.32;3.25;;;8.30;99.90;;;;;;5048421;28;20127;-65
2023/11/08 02:40:49;;;;;;;4.32;2.88;;;8.40;99.90;;;;;;5030996;28;20561;-65
2023/11/08 02:43:15;;;;;;;2.75;2.53;;;8.30;99.90;;;;;;5014557;28;20044;-65
2023/11/08 02:45:41;;;;;;;2.67;2.47;;;8.30;99.90;;;;;;5048711;28;20119;-65
2023/11/08 02:48:06;;;;;;;5.38;2.83;;;8.30;99.90;;;;;;5049439;28;20049;-65
2023/11/08 02:50:38;;;;;;;5.35;2.97;;;8.20;99.90;;;;;;5043342;28;20053;-65
2023/11/08 02:53:04;;;;;;;3.20;2.88;;;8.30;99.90;;;;;;5043389;28;20041;-65
2023/11/08 02:55:31;;;;;;;5.72;3.42;;;8.20;99.90;;;;;;5041928;28;20053;-65
2023/11/08 02:57:57;;;;;;;3.88;3.15;;;8.30;99.90;;;;;;5041635;28;20049;-65
2023/11/08 03:00:23;;;;;;;4.85;2.53;;;8.20;99.90;;;;;;5048066;28;20415;-65
2023/11/08 03:02:51;;;;;;;5.15;2.80;;;8.30;99.90;;;;;;5039632;28;20048;-65
2023/11/08 03:05:22;;;;;;;6.80;3.05;;;8.30;99.90;;;;;;5048597;28;20124;-65
2023/11/08 03:07:53;;;;;;;5.05;2.55;;;8.30;99.90;;;;;;5030810;28;20558;-65
2023/11/08 03:10:22;;;;;;;3.50;2.58;;;8.30;99.90;;;;;;5018349;28;20046;-65
2023/11/08 03:12:50;;;;;;;2.83;2.50;;;8.30;99.90;;;;;;5036170;28;20044;-66
2023/11/08 03:15:21;;;;;;;3.13;2.53;;;8.40;99.90;;;;;;5030143;28;20042;-65
2023/11/08 03:17:48;;;;;;;2.80;2.60;;;8.30;99.90;;;;;;5009061;28;20063;-66
2023/11/08 03:20:15;;;;;;;3.45;2.80;;;8.40;99.90;;;;;;5048155;28;20517;-66
2023/11/08 03:22:41;;;;;;;3.25;2.85;;;8.40;99.90;;;;;;5017670;28;20042;-66
2023/11/08 03:25:11;;;;;;;6.55;2.80;;;8.40;99.90;;;;;;5047452;28;20041;-66
2023/11/08 03:27:43;;;;;;;5.95;3.42;;;8.50;99.90;;;;;;5047975;28;20117;-66
2023/11/08 03:30:16;;;;;;;5.15;3.25;;;8.40;99.90;;;;;;5048264;28;20392;-66
2023/11/08 03:32:42;;;;;;;6.28;3.15;;;8.40;99.90;;;;;;5042123;28;20059;-66
2023/11/08 03:35:09;;;;;;;5.15;3.33;;;8.50;99.90;;;;;;5035020;28;20053;-66
2023/11/08 03:37:39;;;;;;;10.13;3.42;;;8.40;99.90;;;;;;5047700;28;20049;-66
2023/11/08 03:40:06;;;;;;;;;;;8.40;99.90;;;;;;5048432;28;20132;-66
2023/11/08 03:42:34;;;;;;;7.90;3.50;;;8.40;99.90;;;;;;5043546;28;19968;-66
2023/11/08 03:45:01;;;;;;;3.95;2.67;;;8.50;99.90;;;;;;5048226;28;20039;-65
2023/11/08 03:47:27;;;;;;;2.75;2.30;;;8.50;99.90;;;;;;5047356;28;20049;-66
2023/11/08 03:49:54;;;;;;;5.32;2.45;;;8.40;99.90;;;;;;5047831;28;20513;-65
2023/11/08 03:52:20;;;;;;;1.90;1.75;;;8.40;99.90;;;;;;5020194;28;20052;-65
2023/11/08 03:54:46;;;;;;;3.20;1.90;;;8.40;99.90;;;;;;5028723;28;20053;-65
2023/11/08 03:57:12;;;;;;;2.45;1.63;;;8.30;99.90;;;;;;5034434;28;20049;-65
2023/11/08 03:59:38;;;;;;;3.90;1.60;;;8.30;99.90;;;;;;5020971;28;20057;-65
2023/11/08 04:02:03;;;;;;;2.88;1.27;;;8.30;99.90;;;;;;5024974;28;20090;-65
2023/11/08 04:04:29;;;;;;;3.10;1.60;;;8.30;99.90;;;;;;5009490;28;20049;-65
2023/11/08 04:06:55;;;;;;;5.75;1.70;;;8.20;99.90;;;;;;5035246;28;20056;-65
2023/11/08 04:09:21;;;;;;;1.95;1.30;;;8.20;99.90;;;;;;5043314;28;20463;-65
2023/11/08 04:11:46;;;;;;;1.80;1.70;;;8.30;99.90;;;;;;5025182;28;20045;-65
2023/11/08 04:14:12;;;;;;;3.55;1.90;;;8.20;99.90;;;;;;5035882;28;20175;-65
2023/11/08 04:16:39;;;;;;;3.33;1.77;;;8.20;99.90;;;;;;5047271;28;20052;-66
2023/11/08 04:19:06;;;;;;;2.97;1.85;;;8.20;99.90;;;;;;5047195;28;20090;-65
2023/11/08 04:21:31;;;;;;;2.38;2.10;;;8.20;99.90;;;;;;5047204;28;20534;-65
2023/11/08 04:23:58;;;;;;;3.63;2.60;;;8.20;99.90;;;;;;5022956;28;20128;-65
2023/11/08 04:26:24;;;;;;;7.80;2.67;;;8.20;99.90;;;;;;5028032;28;20542;-65
2023/11/08 04:28:51;;;;;;;7.38;2.55;;;8.10;99.90;;;;;;5028742;28;20170;-65
2023/11/08 04:31:17;;;;;;;6.38;2.78;;;8.20;99.90;;;;;;5044578;28;20033;-66
2023/11/08 04:33:43;;;;;;;2.30;2.10;;;8.20;99.90;;;;;;5034860;28;20444;-65
2023/11/08 04:36:12;;;;;;;2.97;2.63;;;8.20;99.90;;;;;;5012967;28;20178;-65
2023/11/08 04:38:39;;;;;;;5.72;2.40;;;8.10;99.90;;;;;;5047016;28;20056;-65
2023/11/08 04:41:07;;;;;;;4.93;2.60;;;8.10;99.90;;;;;;5029557;28;20395;-65
2023/11/08 04:43:35;;;;;;;4.40;2.75;;;8.10;99.90;;;;;;5024607;28;20514;-65
2023/11/08 04:46:00;;;;;;;5.30;2.33;;;8.00;99.90;;;;;;5029302;28;20052;-65
2023/11/08 04:48:26;;;;;;;5.50;2.55;;;8.00;99.90;;;;;;5029071;28;20040;-65
2023/11/08 04:50:53;;;;;;;10.63;3.10;;;8.00;99.90;;;;;;5046684;28;20411;-65
2023/11/08 04:53:18;;;;;;;3.55;2.10;;;8.00;99.90;;;;;;5041025;28;20085;-65
2023/11/08 04:55:44;;;;;;;2.85;2.22;;;8.00;99.90;;;;;;5046627;28;20126;-65
2023/11/08 04:58:10;;;;;;;5.88;2.42;;;7.90;99.90;;;;;;5046992;28;20041;-65
2023/11/08 05:00:35;;;;;;;7.38;2.33;;;7.90;99.90;;;;;;5028840;28;20048;-65
2023/11/08 05:03:01;;;;;;;2.55;1.88;;;7.90;99.90;;;;;;5039940;28;20055;-65
2023/11/08 05:05:27;;;;;;;2.35;1.80;;;8.00;99.90;;;;;;5029774;28;20498;-65
2023/11/08 05:07:53;;;;;;;4.18;1.20;;;7.90;99.90;;;;;;5028176;28;20059;-65
2023/11/08 05:10:18;;;;;;;5.75;1.40;;;7.90;99.90;;;;;;5034488;28;20053;-65
2023/11/08 05:12:44;;;;;;;2.38;0.80;;;8.10;99.90;;;;;;5026919;28;20045;-65
2023/11/08 05:15:10;;;;;;;5.97;1.23;;;8.00;99.90;;;;;;5043059;28;20068;-65
2023/11/08 05:17:39;;;;;;;3.78;1.42;;;8.20;99.90;;;;;;5046217;28;20164;-66
2023/11/08 05:20:06;;;;;;;3.60;1.35;;;8.10;99.90;;;;;;5046963;28;20434;-66
2023/11/08 05:22:32;;;;;;;6.25;1.45;;;8.20;99.90;;;;;;5046600;28;20365;-66
2023/11/08 05:25:00;;;;;;;6.35;1.85;;;8.30;99.90;;;;;;5040789;28;20479;-66
2023/11/08 05:27:26;;;;;;;1.77;1.50;;;8.20;99.90;;;;;;5026006;28;20094;-65
2023/11/08 05:29:53;;;;;;;1.85;1.67;;;8.20;99.90;;;;;;5049987;28;20199;-65
2023/11/08 05:32:21;;;;;;;9.68;2.50;;;8.30;99.90;;;;;;5049004;28;20052;-65
2023/11/08 05:34:48;;;;;;;11.02;2.25;;;8.20;99.90;;;;;;5032160;28;20056;-66
2023/11/08 05:37:17;;;;;;;3.67;2.65;;;8.20;99.90;;;;;;5032503;28;20080;-65
2023/11/08 05:39:44;;;;;;;10.75;2.80;;;8.30;99.90;;;;;;5050221;28;20080;-65
2023/11/08 05:42:10;;;;;;;2.92;2.70;;;8.30;99.90;;;;;;5032346;28;20937;-65
2023/11/08 05:44:36;;;;;;;4.13;2.70;;;8.30;99.90;;;;;;5050573;28;20077;-65
2023/11/08 05:47:01;;;;;;;8.38;3.22;;;8.20;99.90;;;;;;5034105;28;20032;-65
2023/11/08 05:49:27;;;;;;;15.30;4.35;;;8.30;99.90;;;;;;5050508;28;20060;-65
2023/11/08 05:51:53;;;;;;;10.60;3.25;;;8.30;99.90;;;;;;5046042;28;20130;-65
2023/11/08 05:54:19;;;;;;;5.82;3.50;;;8.20;99.90;;;;;;5050005;28;20056;-65
2023/11/08 05:56:46;;;;;;;4.43;3.63;;;8.30;99.90;;;;;;5041113;28;20092;-65
2023/11/08 05:59:14;;;;;;;8.32;4.22;;;8.20;99.90;;;;;;5050280;28;20059;-65
2023/11/08 06:01:40;;;;;;;9.93;3.60;;;8.30;99.90;;;;;;5025356;28;20056;-65
2023/11/08 06:04:07;;;;;;;3.55;2.60;;;8.20;99.90;;;;;;5049784;28;20037;-65
2023/11/08 06:06:35;;;;;;;5.45;3.13;;;8.20;99.90;;;;;;5044483;28;20046;-65
2023/11/08 06:09:01;;;;;;;7.57;3.22;;;8.20;99.90;;;;;;5047664;28;20036;-65
2023/11/08 06:11:27;;;;;;;5.18;3.45;;;8.20;99.90;;;;;;5037874;28;20052;-65
2023/11/08 06:13:53;;;;;;;8.07;3.78;;;8.20;99.90;;;;;;5049307;28;20049;-65
2023/11/08 06:16:19;;;;;;;4.32;3.42;;;8.20;99.90;;;;;;5020324;28;20080;-65
2023/11/08 06:18:45;;;;;;;3.88;2.92;;;8.20;99.90;;;;;;5039315;28;20466;-65
2023/11/08 06:21:15;;;;;;;6.63;3.28;;;8.20;99.90;;;;;;5046923;28;20041;-65
2023/11/08 06:23:43;;;;;;;9.82;3.42;;;8.20;99.90;;;;;;5049477;28;20037;-64
2023/11/08 06:26:16;;;;;;;9.80;3.42;;;8.20;99.90;;;;;;5031610;28;20487;-65
2023/11/08 06:28:42;;;;;;;3.75;3.08;;;8.20;99.90;;;;;;5044139;28;20048;-65
2023/11/08 06:31:08;;;;;;;13.98;4.60;;;8.20;99.90;;;;;;5047883;28;20500;-65
2023/11/08 06:33:35;;;;;;;9.75;4.03;;;8.20;99.90;;;;;;5049451;28;20053;-65
2023/11/08 06:36:01;;;;;;;6.53;3.90;;;8.20;99.90;;;;;;5030280;28;20045;-65
2023/11/08 06:38:27;;;;;;;5.00;3.83;;;8.20;99.90;;;;;;5041187;28;20406;-65
2023/11/08 06:40:54;;;;;;;8.02;4.50;;;8.30;99.90;;;;;;5022749;28;20045;-65
2023/11/08 06:43:19;;;;;;;5.93;3.38;;;8.20;99.90;;;;;;5030679;28;20042;-65
2023/11/08 06:45:45;;;;;;;7.93;4.57;;;8.10;99.90;;;;;;5037758;28;20052;-65
2023/11/08 06:48:11;;;;;;;8.10;4.75;;;8.30;99.90;;;;;;5033288;28;20609;-65
2023/11/08 06:50:37;;;;;;;4.88;4.40;;;8.20;99.90;;;;;;4994736;28;20446;-65
2023/11/08 06:53:03;;;;;;;11.23;4.60;;;8.20;99.90;;;;;;4994388;28;20164;-65
2023/11/08 06:55:33;;;;;;;4.40;4.03;;;8.20;99.90;;;;;;5023139;28;20061;-65
2023/11/08 06:58:05;;;;;;;9.32;5.15;;;8.30;99.90;;;;;;5028284;28;20085;-65
2023/11/08 07:00:33;;;;;;;9.45;5.20;;;8.20;99.90;;;;;;5019429;28;20458;-65
2023/11/08 07:02:59;;;;;;;8.90;5.50;;;8.30;99.90;;;;;;5010653;28;20049;-65
2023/11/08 07:05:25;;;;;;;10.57;5.20;;;8.30;99.90;;;;;;4994719;28;20475;-65
2023/11/08 07:07:50;;;;;;;12.18;4.75;;;8.30;99.90;;;;;;5029141;28;20055;-65
2023/11/08 07:10:16;;;;;;;10.05;4.97;;;8.40;99.90;;;;;;5027318;28;20436;-65
2023/11/08 07:12:42;;;;;;;13.10;5.50;;;8.40;99.90;;;;;;5046360;28;20041;-65
2023/11/08 07:15:08;;;;;;;9.65;5.20;;;8.40;99.90;;;;;;5030248;28;20139;-65
2023/11/08 07:17:36;;;;;;;10.68;5.45;;;8.40;99.90;;;;;;5048159;28;20128;-65
2023/11/08 07:20:06;;;;;;;11.15;4.93;;;8.40;99.90;;;;;;5018755;28;20038;-65
2023/11/08 07:22:32;;;;;;;12.15;5.50;;;8.50;99.90;;;;;;5038946;28;20041;-65
2023/11/08 07:24:58;;;;;;;7.57;5.25;;;8.50;99.90;;;;;;5047967;28;20040;-65
2023/11/08 07:27:24;;;;;;;13.20;5.43;;;8.50;99.90;;;;;;5048390;28;20040;-65
2023/11/08 07:29:50;;;;;;;8.88;5.15;;;8.50;99.90;;;;;;5037820;28;20057;-65
2023/11/08 07:32:16;;;;;;;12.35;5.85;;;8.50;99.90;;;;;;5020709;28;20079;-65
2023/11/08 07:34:42;;;;;;;11.27;5.88;;;8.50;99.90;;;;;;5030018;28;20052;-65
2023/11/08 07:37:08;;;;;;;9.63;4.65;;;8.50;99.90;;;;;;5047553;28;20064;-66
2023/11/08 07:39:35;;;;;;;6.78;4.53;;;8.50;99.90;;;;;;5034070;28;20057;-66
2023/11/08 07:42:02;;;;;;;14.50;6.22;;;8.50;99.90;;;;;;5041012;28;20117;-66
2023/11/08 07:44:30;;;;;;;8.85;5.40;;;8.50;99.90;;;;;;5030271;28;20056;-66
2023/11/08 07:46:56;;;;;;;6.13;4.35;;;8.50;99.90;;;;;;5047180;28;20087;-66
2023/11/08 07:49:22;;;;;;;10.77;5.20;;;8.50;99.90;;;;;;5047589;28;20075;-65
2023/11/08 07:51:48;;;;;;;17.23;6.45;;;8.50;99.90;;;;;;5042231;28;20491;-66
2023/11/08 07:54:14;;;;;;;11.05;6.07;;;8.40;99.90;;;;;;5039851;28;20096;-65
2023/11/08 07:56:40;;;;;;;8.98;5.03;;;8.50;99.90;;;;;;5047734;28;20037;-65
2023/11/08 07:59:06;;;;;;;11.50;6.10;;;8.50;99.90;;;;;;5047413;28;20048;-65
2023/11/08 08:01:31;;;;;;;12.70;6.25;;;8.60;99.90;;;;;;5039288;28;20613;-66
2023/11/08 08:03:57;;;;;;;8.80;5.35;;;8.60;99.90;;;;;;5031694;28;20033;-65
2023/11/08 08:06:23;;;;;;;13.07;6.13;;;8.60;99.90;;;;;;5046069;28;20400;-65
2023/11/08 08:08:50;;;;;;;13.88;6.20;;;8.80;99.90;;;;;;5025490;28;20047;-65
2023/11/08 08:11:16;;;;;;;16.02;6.75;;;8.70;99.90;;;;;;4992863;28;20053;-66
2023/11/08 08:13:43;;;;;;;12.52;6.25;;;8.90;99.90;;;;;;5026192;28;20061;-65
2023/11/08 08:16:09;;;;;;;15.02;5.63;;;9.10;99.90;;;;;;5031131;28;20050;-65
2023/11/08 08:18:36;;;;;;;9.30;4.72;;;9.00;99.90;;;;;;5036304;28;20063;-66
2023/11/08 08:21:02;;;;;;;10.25;6.05;;;9.10;99.90;;;;;;4993414;28;20049;-65
2023/11/08 08:23:28;;;;;;;9.85;6.05;;;9.20;99.90;;;;;;5021179;28;20051;-65
2023/11/08 08:25:54;;;;;;;9.95;6.45;;;9.20;99.90;;;;;;5032315;28;20037;-66
2023/11/08 08:28:20;;;;;;;9.27;5.50;;;9.10;99.90;;;;;;5026832;28;20108;-66
2023/11/08 08:30:46;;;;;;;18.45;5.90;;;9.10;99.90;;;;;;5025186;28;20124;-65
2023/11/08 08:33:12;;;;;;;18.25;6.45;;;9.10;99.90;;;;;;5026114;28;20041;-66
2023/11/08 08:35:38;;;;;;;11.23;6.40;;;9.00;99.90;;;;;;5026885;28;20044;-65
2023/11/08 08:38:04;;;;;;;11.02;5.78;;;9.10;99.90;;;;;;5027016;28;20037;-66
2023/11/08 08:40:31;;;;;;;15.10;7.15;;;9.00;99.90;;;;;;5025305;28;20513;-65
2023/11/08 08:42:57;;;;;;;8.13;5.10;;;9.10;99.90;;;;;;5009144;28;20054;-65
2023/11/08 08:45:22;;;;;;;10.40;5.95;;;9.00;99.90;;;;;;5006979;28;20088;-66
2023/11/08 08:47:52;;;;;;;9.27;5.97;;;9.10;99.90;;;;;;5023830;28;20073;-65
2023/11/08 08:50:18;;;;;;;14.25;6.88;;;9.10;99.90;;;;;;5034457;28;20041;-65
2023/11/08 08:52:45;;;;;;;8.73;5.38;;;9.20;99.90;;;;;;5027194;28;20387;-64
2023/11/08 08:55:14;;;;;;;10.10;5.63;;;9.20;99.90;;;;;;5025686;28;20069;-64
2023/11/08 08:57:46;;;;;;;10.20;5.45;;;9.30;99.90;;;;;;5035207;28;20092;-64
2023/11/08 09:00:14;;;;;;;9.63;6.10;;;9.40;99.90;;;;;;5011226;28;20056;-64
2023/11/08 09:02:40;;;;;;;9.38;5.32;;;9.30;99.90;;;;;;4987843;28;20060;-64
2023/11/08 09:05:06;;;;;;;8.80;4.43;;;9.40;99.90;;;;;;5016585;28;20423;-64
2023/11/08 09:07:32;;;;;;;8.73;5.78;;;9.60;99.90;;;;;;5026278;28;20053;-64
2023/11/08 09:09:59;;;;;;;13.02;5.70;;;9.70;99.90;;;;;;5017463;28;20048;-62
2023/11/08 09:12:25;;;;;;;17.15;7.70;;;9.70;99.90;;;;;;5038017;28;20045;-63
2023/11/08 09:14:54;;;;;;;12.90;6.43;;;9.70;99.90;;;;;;5043319;28;20033;-63
2023/11/08 09:17:20;;;;;;;10.77;5.40;;;9.70;99.90;;;;;;5017313;28;20045;-62
2023/11/08 09:19:46;;;;;;;21.05;6.38;;;9.70;99.90;;;;;;5046674;28;20033;-62
2023/11/08 09:22:12;;;;;;;14.43;7.65;;;9.80;99.90;;;;;;5034198;28;20045;-63
2023/11/08 09:24:38;;;;;;;10.10;5.15;;;9.80;99.90;;;;;;5043557;28;20521;-63
2023/11/08 09:27:06;;;;;;;10.30;5.88;;;9.90;99.90;;;;;;5039373;28;20503;-63
2023/11/08 09:29:33;;;;;;;13.88;6.50;;;10.00;99.90;;;;;;5045724;28;20049;-65
2023/11/08 09:31:59;;;;;;;9.60;5.05;;;9.90;99.90;;;;;;5000754;28;20095;-65
2023/11/08 09:34:25;;;;;;;15.80;5.60;;;10.00;99.90;;;;;;5041096;28;20422;-65
2023/11/08 09:36:51;;;;;;;11.25;5.55;;;10.00;99.90;;;;;;5025019;28;20098;-65
2023/11/08 09:39:17;;;;;;;11.13;5.68;;;10.20;99.90;;;;;;5046025;28;20045;-65
2023/11/08 09:41:43;;;;;;;14.30;4.95;;;10.20;99.90;;;;;;5028249;28;20394;-65
2023/11/08 09:44:10;;;;;;;14.15;5.68;;;10.30;99.90;;;;;;5028815;28;20045;-63
2023/11/08 09:46:38;;;;;;;12.23;5.13;;;10.30;99.90;;;;;;5043655;28;20048;-63
2023/11/08 09:49:04;;;;;;;13.63;5.13;;;10.30;99.90;;;;;;5026195;28;20048;-63
2023/11/08 09:51:31;;;;;;;11.45;4.15;;;10.40;99.90;;;;;;5006901;28;20061;-63
2023/11/08 09:54:00;;;;;;;13.40;3.80;;;10.40;99.90;;;;;;5024890;28;20053;-63
2023/11/08 09:56:28;;;;;;;12.88;4.35;;;10.40;99.90;;;;;;5026119;28;20048;-63
2023/11/08 09:58:56;;;;;;;11.18;4.72;;;10.40;99.90;;;;;;5024855;28;20522;-63
2023/11/08 10:01:22;;;;;;;10.57;4.53;;;10.40;99.90;;;;;;5026029;28;20041;-63
2023/11/08 10:03:50;;;;;;;12.43;4.60;;;10.50;99.90;;;;;;5026290;28;20392;-63
2023/11/08 10:06:16;;;;;;;10.95;4.00;;;10.60;99.90;;;;;;5002998;28;20057;-63
2023/11/08 10:08:42;;;;;;;5.65;3.42;;;10.60;99.90;;;;;;5025214;28;20053;-63
2023/11/08 10:11:07;;;;;;;13.02;3.97;;;10.60;99.90;;;;;;5029363;28;20407;-63
2023/11/08 10:13:48;;;;;;;9.90;3.90;;;10.60;99.90;;;;;;5049668;28;20045;-62
2023/11/08 10:16:18;;;;;;;13.80;3.75;;;10.60;99.90;;;;;;5030423;28;20055;-63
2023/11/08 10:18:57;;;;;;;11.70;3.63;;;10.60;99.90;;;;;;5041388;28;20056;-63
2023/11/08 10:21:26;;;;;;;10.17;3.50;;;10.60;99.90;;;;;;5013094;28;20051;-63
2023/11/08 10:23:55;;;;;;;11.57;3.63;;;10.60;99.90;;;;;;5019617;28;20041;-65
2023/11/08 10:26:31;;;;;;;9.40;2.70;;;10.70;99.90;;;;;;5029753;28;20029;-65
2023/11/08 10:29:05;;;;;;;11.25;2.42;;;10.70;99.90;;;;;;5029359;28;20040;-65
2023/11/08 10:31:39;;;;;;;6.57;2.50;;;10.80;99.90;;;;;;5011379;28;20227;-62
2023/11/08 10:34:06;;;;;;;7.25;2.72;;;10.70;99.90;;;;;;5011886;28;20535;-62
2023/11/08 10:36:33;;;;;;;14.80;2.45;;;10.80;99.90;;;;;;5039842;28;20507;-63
2023/11/08 10:38:59;;;;;;;11.23;2.53;;;10.70;99.90;;;;;;5039234;28;20037;-62
2023/11/08 10:41:27;;;;;;;9.52;2.33;;;10.80;99.90;;;;;;5027756;28;20060;-62
2023/11/08 10:44:06;;;;;;;6.38;3.03;;;10.80;99.90;;;;;;5029372;28;20045;-64
2023/11/08 10:46:32;;;;;;;4.32;2.65;;;10.90;99.90;;;;;;5028492;28;20307;-64
2023/11/08 10:48:59;;;;;;;9.73;2.97;;;10.90;99.90;;;;;;5010870;28;20095;-64
2023/11/08 10:51:25;;;;;;;6.18;2.00;;;10.90;99.90;;;;;;5032373;28;20463;-64
2023/11/08 10:53:52;;;;;;;5.35;2.40;;;11.00;99.90;;;;;;5025637;28;20054;-64
2023/11/08 10:56:20;;;;;;;6.63;2.08;;;11.00;99.90;;;;;;5028654;28;20415;-64
2023/11/08 10:58:47;;;;;;;7.65;1.80;;;11.10;99.90;;;;;;5028261;28;20073;-64
2023/11/08 11:01:14;;;;;;;6.95;1.92;;;11.10;99.90;;;;;;5008061;28;20042;-64
2023/11/08 11:03:42;;;;;;;8.15;2.15;;;11.20;99.90;;;;;;5016125;28;20519;-64
2023/11/08 11:06:08;;;;;;;13.48;2.50;;;11.20;99.90;;;;;;5028474;28;20044;-64
2023/11/08 11:08:43;;;;;;;7.63;1.92;;;11.20;99.90;;;;;;5027229;28;20403;-64
2023/11/08 11:11:10;;;;;;;8.55;1.73;;;11.30;99.90;;;;;;5031585;28;20163;-64
2023/11/08 11:13:45;;;;;;;3.17;1.58;;;11.30;99.90;;;;;;5021830;28;20110;-65
2023/11/08 11:16:19;;;;;;;5.75;1.83;;;11.30;99.90;;;;;;5047776;28;20084;-64
2023/11/08 11:18:52;;;;;;;3.55;1.65;;;11.40;99.90;;;;;;5039643;28;20097;-64
2023/11/08 11:21:34;;;;;;;4.88;1.50;;;11.40;99.90;;;;;;5027739;28;20091;-63
2023/11/08 11:24:00;;;;;;;6.63;1.90;;;11.40;99.90;;;;;;5028543;28;20052;-64
2023/11/08 11:26:46;;;;;;;3.75;1.50;;;11.30;99.90;;;;;;5030630;28;20045;-64
2023/11/08 11:29:19;;;;;;;5.47;1.88;;;11.20;99.90;;;;;;5021710;28;20453;-64
2023/11/08 11:31:45;;;;;;;6.45;1.52;;;11.10;99.90;;;;;;5021487;28;20033;-64
2023/11/08 11:34:19;;;;;;;5.22;1.88;;;11.10;99.90;;;;;;5033923;28;20045;-64
2023/11/08 11:37:00;;;;;;;5.82;1.75;;;11.00;99.90;;;;;;5022260;28;20045;-64
2023/11/08 11:39:29;;;;;;;5.45;1.40;;;11.00;99.90;;;;;;5030961;28;20087;-64
2023/11/08 11:42:14;;;;;;;4.32;1.50;;;11.00;99.90;;;;;;5029211;28;20049;-64
2023/11/08 11:44:57;;;;;;;2.08;1.35;;;11.00;99.90;;;;;;5026132;28;20436;-64
2023/11/08 11:47:28;;;;;;;4.63;1.33;;;11.00;99.90;;;;;;5019273;28;20072;-64
2023/11/08 11:50:00;;;;;;;6.10;1.63;;;11.00;99.90;;;;;;5033393;28;20041;-64
2023/11/08 11:52:28;;;;;;;8.27;1.60;;;11.10;99.90;;;;;;5005490;28;20050;-64
2023/11/08 11:54:56;;;;;;;5.68;1.20;;;11.20;99.90;;;;;;5038143;28;20056;-64
2023/11/08 11:57:24;;;;;;;5.07;1.25;;;11.30;99.90;;;;;;5028809;28;20061;-63
2023/11/08 11:59:51;;;;;;;3.78;1.27;;;11.40;99.90;;;;;;5031863;28;20072;-64
2023/11/08 12:02:18;;;;;;;1.60;1.13;;;11.50;99.90;;;;;;5025793;28;20853;-64
2023/11/08 12:04:45;;;;;;;4.00;1.85;;;11.60;99.90;;;;;;5025316;28;20053;-64
2023/11/08 12:07:14;;;;;;;5.05;1.02;;;11.70;99.90;;;;;;5027060;28;20547;-64
2023/11/08 12:09:42;;;;;;;5.43;1.30;;;11.70;99.90;;;;;;5025261;28;20049;-64
2023/11/08 12:12:08;;;;;;;2.60;0.98;;;11.70;99.90;;;;;;5007958;28;20040;-64
2023/11/08 12:14:36;;;;;;;2.72;1.02;;;11.70;99.90;;;;;;5006092;28;20278;-64
2023/11/08 12:17:07;;;;;;;2.45;0.90;;;11.60;99.90;;;;;;4974368;28;20526;-64
2023/11/08 12:19:33;;;;;;;2.15;1.10;;;11.60;99.90;;;;;;5010380;28;20045;-63
2023/11/08 12:22:01;;;;;;;2.65;0.82;;;11.50;99.90;;;;;;5026056;28;20807;-63
2023/11/08 12:24:34;;;;;;;3.92;1.10;;;11.40;99.90;;;;;;5006214;28;20053;-64
2023/11/08 12:27:04;;;;;;;2.67;1.05;;;11.50;99.90;;;;;;5014244;28;20076;-64
2023/11/08 12:29:30;;;;;;;2.15;0.80;;;11.40;99.90;;;;;;5016327;28;20037;-64
2023/11/08 12:31:57;;;;;;;3.97;1.10;;;11.40;99.90;;;;;;5032009;28;20438;-64
2023/11/08 12:34:24;;;;;;;1.27;0.85;;;11.40;99.90;;;;;;5029178;28;20130;-64
2023/11/08 12:36:50;;;;;;;2.90;0.80;;;11.30;99.90;;;;;;5031933;28;20052;-64
2023/11/08 12:39:21;;;;;;;3.97;1.08;;;11.30;99.90;;;;;;5026484;28;20478;-64
2023/11/08 12:41:52;;;;;;;1.38;0.90;;;11.20;99.90;;;;;;4979357;28;20081;-64
2023/11/08 12:44:20;;;;;;;1.35;0.90;;;11.10;99.90;;;;;;5037847;28;20045;-63
2023/11/08 12:46:59;;;;;;;2.22;0.70;;;11.10;99.90;;;;;;5024418;28;20041;-64
2023/11/08 12:49:27;;;;;;;4.03;1.02;;;11.10;99.90;;;;;;5014716;28;20138;-64
2023/11/08 12:51:53;;;;;;;0.60;0.47;;;11.10;99.90;;;;;;5036623;28;20140;-64
2023/11/08 12:54:20;;;;;;;4.65;0.70;;;11.10;99.90;;;;;;5029426;28;20084;-64